sensor_id;sensor_type;location;lat;lon;timestamp;P1;durP1;ratioP1;P2;durP2;ratioP2
62911;SDS011;49111;51.028;4.218;2023-01-24T06:54:41;21.30;;;12.95;;
62911;SDS011;49111;51.028;4.218;2023-01-24T06:57:07;27.83;;;14.55;;
62911;SDS011;49111;51.028;4.218;2023-01-24T06:59:33;23.77;;;15.02;;
62911;SDS011;49111;51.028;4.218;2023-01-24T07:01:58;24.45;;;13.02;;
62911;SDS011;49111;51.028;4.218;2023-01-24T07:04:24;22.70;;;12.75;;
62911;SDS011;49111;51.028;4.218;2023-01-24T07:06:50;23.63;;;13.88;;
62911;SDS011;49111;51.028;4.218;2023-01-24T07:09:20;25.25;;;13.48;;
62911;SDS011;49111;51.028;4.218;2023-01-24T07:11:49;22.98;;;14.60;;
62911;SDS011;49111;51.028;4.218;2023-01-24T07:14:20;24.50;;;13.70;;
62911;SDS011;49111;51.028;4.218;2023-01-24T07:16:46;25.40;;;13.25;;
62911;SDS011;49111;51.028;4.218;2023-01-24T07:19:14;24.33;;;14.32;;
62911;SDS011;49111;51.028;4.218;2023-01-24T07:21:42;25.33;;;13.50;;
62911;SDS011;49111;51.028;4.218;2023-01-24T07:24:18;24.27;;;13.77;;
62911;SDS011;49111;51.028;4.218;2023-01-24T07:26:46;24.13;;;13.43;;
62911;SDS011;49111;51.028;4.218;2023-01-24T07:29:16;24.25;;;12.68;;
62911;SDS011;49111;51.028;4.218;2023-01-24T07:31:43;25.27;;;15.38;;
62911;SDS011;49111;51.028;4.218;2023-01-24T07:34:09;22.48;;;13.70;;
62911;SDS011;49111;51.028;4.218;2023-01-24T07:36:35;22.92;;;13.85;;
62911;SDS011;49111;51.028;4.218;2023-01-24T07:39:01;23.23;;;12.88;;
62911;SDS011;49111;51.028;4.218;2023-01-24T07:41:27;26.58;;;16.48;;
62911;SDS011;49111;51.028;4.218;2023-01-24T07:43:54;21.90;;;13.48;;
62911;SDS011;49111;51.028;4.218;2023-01-24T07:46:20;23.52;;;13.60;;
62911;SDS011;49111;51.028;4.218;2023-01-24T07:48:46;24.63;;;14.85;;
62911;SDS011;49111;51.028;4.218;2023-01-24T07:51:12;25.23;;;13.10;;
62911;SDS011;49111;51.028;4.218;2023-01-24T07:53:38;24.17;;;12.88;;
62911;SDS011;49111;51.028;4.218;2023-01-24T07:56:04;25.17;;;13.77;;
62911;SDS011;49111;51.028;4.218;2023-01-24T07:58:31;25.35;;;14.90;;
62911;SDS011;49111;51.028;4.218;2023-01-24T08:00:57;24.20;;;13.30;;
62911;SDS011;49111;51.028;4.218;2023-01-24T08:03:23;24.02;;;15.25;;
62911;SDS011;49111;51.028;4.218;2023-01-24T08:05:49;23.90;;;14.55;;
62911;SDS011;49111;51.028;4.218;2023-01-24T08:08:15;22.33;;;14.70;;
62911;SDS011;49111;51.028;4.218;2023-01-24T08:10:41;26.35;;;15.45;;
62911;SDS011;49111;51.028;4.218;2023-01-24T08:13:07;26.90;;;16.17;;
62911;SDS011;49111;51.028;4.218;2023-01-24T08:15:32;25.23;;;15.02;;
62911;SDS011;49111;51.028;4.218;2023-01-24T08:18:00;28.08;;;15.55;;
62911;SDS011;49111;51.028;4.218;2023-01-24T08:20:27;26.85;;;15.27;;
62911;SDS011;49111;51.028;4.218;2023-01-24T08:22:54;26.75;;;15.38;;
62911;SDS011;49111;51.028;4.218;2023-01-24T08:25:26;25.95;;;16.27;;
62911;SDS011;49111;51.028;4.218;2023-01-24T08:27:53;27.60;;;16.35;;
62911;SDS011;49111;51.028;4.218;2023-01-24T08:30:19;27.10;;;16.63;;
62911;SDS011;49111;51.028;4.218;2023-01-24T08:32:45;26.20;;;15.35;;
62911;SDS011;49111;51.028;4.218;2023-01-24T08:35:11;25.83;;;14.38;;
62911;SDS011;49111;51.028;4.218;2023-01-24T08:37:37;29.05;;;15.65;;
62911;SDS011;49111;51.028;4.218;2023-01-24T08:40:03;29.23;;;16.90;;
62911;SDS011;49111;51.028;4.218;2023-01-24T08:42:31;26.42;;;17.20;;
62911;SDS011;49111;51.028;4.218;2023-01-24T08:44:57;26.23;;;16.25;;
62911;SDS011;49111;51.028;4.218;2023-01-24T08:47:23;28.17;;;16.23;;
62911;SDS011;49111;51.028;4.218;2023-01-24T08:49:49;25.55;;;16.15;;
62911;SDS011;49111;51.028;4.218;2023-01-24T08:52:15;29.05;;;16.83;;
62911;SDS011;49111;51.028;4.218;2023-01-24T08:54:41;28.90;;;15.80;;
62911;SDS011;49111;51.028;4.218;2023-01-24T08:57:07;23.60;;;14.60;;
62911;SDS011;49111;51.028;4.218;2023-01-24T08:59:32;24.90;;;14.82;;
62911;SDS011;49111;51.028;4.218;2023-01-24T09:01:58;25.02;;;14.60;;
62911;SDS011;49111;51.028;4.218;2023-01-24T09:04:24;27.95;;;14.57;;
62911;SDS011;49111;51.028;4.218;2023-01-24T09:06:51;22.55;;;14.25;;
62911;SDS011;49111;51.028;4.218;2023-01-24T09:09:18;22.85;;;13.80;;
62911;SDS011;49111;51.028;4.218;2023-01-24T09:11:44;26.08;;;13.63;;
62911;SDS011;49111;51.028;4.218;2023-01-24T09:14:10;25.27;;;14.13;;
62911;SDS011;49111;51.028;4.218;2023-01-24T09:16:37;25.80;;;15.18;;
62911;SDS011;49111;51.028;4.218;2023-01-24T09:19:03;28.67;;;16.58;;
62911;SDS011;49111;51.028;4.218;2023-01-24T09:21:28;27.92;;;16.92;;
62911;SDS011;49111;51.028;4.218;2023-01-24T09:23:55;27.02;;;14.95;;
62911;SDS011;49111;51.028;4.218;2023-01-24T09:26:22;27.15;;;15.25;;
62911;SDS011;49111;51.028;4.218;2023-01-24T09:28:47;26.67;;;15.43;;
62911;SDS011;49111;51.028;4.218;2023-01-24T09:31:13;29.90;;;17.77;;
62911;SDS011;49111;51.028;4.218;2023-01-24T09:33:39;32.70;;;19.70;;
62911;SDS011;49111;51.028;4.218;2023-01-24T09:36:05;27.85;;;16.48;;
62911;SDS011;49111;51.028;4.218;2023-01-24T09:38:32;27.23;;;16.67;;
62911;SDS011;49111;51.028;4.218;2023-01-24T09:46:53;26.63;;;16.20;;
62911;SDS011;49111;51.028;4.218;2023-01-24T09:52:09;28.67;;;16.17;;
62911;SDS011;49111;51.028;4.218;2023-01-24T09:55:14;25.98;;;16.52;;
62911;SDS011;49111;51.028;4.218;2023-01-24T09:57:45;27.67;;;16.48;;
62911;SDS011;49111;51.028;4.218;2023-01-24T10:00:24;30.08;;;17.15;;
62911;SDS011;49111;51.028;4.218;2023-01-24T10:02:55;29.45;;;16.13;;
62911;SDS011;49111;51.028;4.218;2023-01-24T10:05:25;27.20;;;16.27;;
62911;SDS011;49111;51.028;4.218;2023-01-24T10:11:15;25.55;;;16.48;;
62911;SDS011;49111;51.028;4.218;2023-01-24T10:19:13;25.95;;;14.65;;
62911;SDS011;49111;51.028;4.218;2023-01-24T10:24:56;21.70;;;13.75;;
62911;SDS011;49111;51.028;4.218;2023-01-24T10:27:36;23.20;;;14.25;;
62911;SDS011;49111;51.028;4.218;2023-01-24T10:30:17;22.70;;;12.65;;
62911;SDS011;49111;51.028;4.218;2023-01-24T10:32:52;25.33;;;14.80;;
62911;SDS011;49111;51.028;4.218;2023-01-24T10:35:38;24.63;;;14.45;;
62911;SDS011;49111;51.028;4.218;2023-01-24T10:38:13;24.30;;;12.85;;
62911;SDS011;49111;51.028;4.218;2023-01-24T10:40:51;22.75;;;13.25;;
62911;SDS011;49111;51.028;4.218;2023-01-24T10:43:24;24.73;;;14.73;;
62911;SDS011;49111;51.028;4.218;2023-01-24T10:46:13;23.27;;;14.85;;
62911;SDS011;49111;51.028;4.218;2023-01-24T10:48:45;24.65;;;13.73;;
62911;SDS011;49111;51.028;4.218;2023-01-24T10:51:20;28.33;;;16.02;;
62911;SDS011;49111;51.028;4.218;2023-01-24T10:53:47;23.95;;;13.65;;
62911;SDS011;49111;51.028;4.218;2023-01-24T10:56:15;23.55;;;14.57;;
62911;SDS011;49111;51.028;4.218;2023-01-24T11:01:35;26.38;;;14.85;;
62911;SDS011;49111;51.028;4.218;2023-01-24T11:04:19;28.05;;;14.82;;
62911;SDS011;49111;51.028;4.218;2023-01-24T11:06:45;24.42;;;14.45;;
62911;SDS011;49111;51.028;4.218;2023-01-24T11:09:14;23.75;;;14.68;;
62911;SDS011;49111;51.028;4.218;2023-01-24T11:11:51;25.10;;;14.82;;
62911;SDS011;49111;51.028;4.218;2023-01-24T11:14:20;23.10;;;14.48;;
62911;SDS011;49111;51.028;4.218;2023-01-24T11:16:55;29.17;;;15.07;;
62911;SDS011;49111;51.028;4.218;2023-01-24T11:19:33;27.40;;;16.77;;
62911;SDS011;49111;51.028;4.218;2023-01-24T11:22:38;28.30;;;14.90;;
62911;SDS011;49111;51.028;4.218;2023-01-24T11:25:02;28.00;;;17.17;;
62911;SDS011;49111;51.028;4.218;2023-01-24T11:27:29;28.33;;;15.93;;
62911;SDS011;49111;51.028;4.218;2023-01-24T11:32:58;24.17;;;13.95;;
62911;SDS011;49111;51.028;4.218;2023-01-24T11:35:42;25.48;;;15.07;;
62911;SDS011;49111;51.028;4.218;2023-01-24T11:48:54;29.60;;;17.27;;
62911;SDS011;49111;51.028;4.218;2023-01-24T11:54:10;26.42;;;15.90;;
62911;SDS011;49111;51.028;4.218;2023-01-24T12:08:04;22.85;;;12.95;;
62911;SDS011;49111;51.028;4.218;2023-01-24T12:16:08;24.33;;;14.68;;
62911;SDS011;49111;51.028;4.218;2023-01-24T12:21:33;22.80;;;13.55;;
62911;SDS011;49111;51.028;4.218;2023-01-24T12:24:08;25.60;;;15.65;;
62911;SDS011;49111;51.028;4.218;2023-01-24T12:26:43;21.90;;;13.10;;
62911;SDS011;49111;51.028;4.218;2023-01-24T12:34:58;23.85;;;13.45;;
62911;SDS011;49111;51.028;4.218;2023-01-24T12:42:48;27.02;;;14.57;;
62911;SDS011;49111;51.028;4.218;2023-01-24T12:45:40;26.48;;;15.80;;
62911;SDS011;49111;51.028;4.218;2023-01-24T12:48:21;25.85;;;14.70;;
62911;SDS011;49111;51.028;4.218;2023-01-24T12:53:41;23.88;;;14.25;;
62911;SDS011;49111;51.028;4.218;2023-01-24T12:56:17;21.38;;;12.75;;
62911;SDS011;49111;51.028;4.218;2023-01-24T12:58:48;25.15;;;15.20;;
62911;SDS011;49111;51.028;4.218;2023-01-24T13:11:58;26.60;;;15.20;;
62911;SDS011;49111;51.028;4.218;2023-01-24T13:14:33;26.33;;;14.35;;
62911;SDS011;49111;51.028;4.218;2023-01-24T13:17:24;23.25;;;13.80;;
62911;SDS011;49111;51.028;4.218;2023-01-24T13:27:55;20.45;;;13.43;;
62911;SDS011;49111;51.028;4.218;2023-01-24T13:33:19;23.58;;;14.25;;
62911;SDS011;49111;51.028;4.218;2023-01-24T13:35:57;25.70;;;15.25;;
62911;SDS011;49111;51.028;4.218;2023-01-24T13:38:29;21.52;;;12.68;;
62911;SDS011;49111;51.028;4.218;2023-01-24T13:41:07;27.05;;;14.32;;
62911;SDS011;49111;51.028;4.218;2023-01-24T13:46:11;23.08;;;13.45;;
62911;SDS011;49111;51.028;4.218;2023-01-24T14:10:51;26.15;;;15.02;;
62911;SDS011;49111;51.028;4.218;2023-01-24T14:13:43;28.63;;;16.30;;
62911;SDS011;49111;51.028;4.218;2023-01-24T14:16:13;26.42;;;16.17;;
62911;SDS011;49111;51.028;4.218;2023-01-24T14:21:51;24.77;;;14.13;;
62911;SDS011;49111;51.028;4.218;2023-01-24T14:24:31;30.35;;;15.35;;
62911;SDS011;49111;51.028;4.218;2023-01-24T14:27:01;23.75;;;13.38;;
62911;SDS011;49111;51.028;4.218;2023-01-24T14:32:37;22.48;;;13.23;;
62911;SDS011;49111;51.028;4.218;2023-01-24T14:38:13;26.63;;;15.85;;
62911;SDS011;49111;51.028;4.218;2023-01-24T14:40:41;24.10;;;15.13;;
62911;SDS011;49111;51.028;4.218;2023-01-24T14:43:10;28.35;;;16.17;;
62911;SDS011;49111;51.028;4.218;2023-01-24T14:45:36;23.88;;;14.95;;
62911;SDS011;49111;51.028;4.218;2023-01-24T14:48:06;24.67;;;12.88;;
62911;SDS011;49111;51.028;4.218;2023-01-24T14:50:35;26.67;;;14.98;;
62911;SDS011;49111;51.028;4.218;2023-01-24T14:53:48;25.33;;;14.82;;
62911;SDS011;49111;51.028;4.218;2023-01-24T14:55:53;27.40;;;14.25;;
62911;SDS011;49111;51.028;4.218;2023-01-24T14:58:22;26.35;;;14.70;;
62911;SDS011;49111;51.028;4.218;2023-01-24T15:00:50;25.92;;;14.70;;
62911;SDS011;49111;51.028;4.218;2023-01-24T15:03:22;27.58;;;16.40;;
62911;SDS011;49111;51.028;4.218;2023-01-24T15:05:51;25.25;;;15.15;;
62911;SDS011;49111;51.028;4.218;2023-01-24T15:08:22;30.63;;;17.10;;
62911;SDS011;49111;51.028;4.218;2023-01-24T15:10:53;28.85;;;17.02;;
62911;SDS011;49111;51.028;4.218;2023-01-24T15:13:35;24.70;;;16.13;;
62911;SDS011;49111;51.028;4.218;2023-01-24T15:16:24;27.75;;;16.20;;
62911;SDS011;49111;51.028;4.218;2023-01-24T15:21:55;30.50;;;18.08;;
62911;SDS011;49111;51.028;4.218;2023-01-24T15:24:25;28.38;;;17.40;;
62911;SDS011;49111;51.028;4.218;2023-01-24T15:26:53;29.13;;;18.58;;
62911;SDS011;49111;51.028;4.218;2023-01-24T15:32:26;30.27;;;18.98;;
62911;SDS011;49111;51.028;4.218;2023-01-24T15:37:58;31.67;;;20.23;;
62911;SDS011;49111;51.028;4.218;2023-01-24T15:40:25;32.42;;;20.13;;
62911;SDS011;49111;51.028;4.218;2023-01-24T15:42:51;36.28;;;21.45;;
62911;SDS011;49111;51.028;4.218;2023-01-24T15:45:38;31.45;;;19.17;;
62911;SDS011;49111;51.028;4.218;2023-01-24T15:48:20;30.77;;;19.42;;
62911;SDS011;49111;51.028;4.218;2023-01-24T15:50:51;33.00;;;19.35;;
62911;SDS011;49111;51.028;4.218;2023-01-24T15:53:40;32.33;;;19.38;;
62911;SDS011;49111;51.028;4.218;2023-01-24T15:56:12;31.98;;;19.67;;
62911;SDS011;49111;51.028;4.218;2023-01-24T15:58:43;32.78;;;19.90;;
62911;SDS011;49111;51.028;4.218;2023-01-24T16:01:12;36.47;;;21.05;;
62911;SDS011;49111;51.028;4.218;2023-01-24T16:03:38;35.20;;;21.33;;
62911;SDS011;49111;51.028;4.218;2023-01-24T16:06:04;33.05;;;20.80;;
62911;SDS011;49111;51.028;4.218;2023-01-24T16:08:30;34.65;;;21.83;;
62911;SDS011;49111;51.028;4.218;2023-01-24T16:10:56;33.47;;;20.30;;
62911;SDS011;49111;51.028;4.218;2023-01-24T16:15:55;31.52;;;20.02;;
62911;SDS011;49111;51.028;4.218;2023-01-24T16:18:26;34.65;;;20.55;;
62911;SDS011;49111;51.028;4.218;2023-01-24T16:20:53;34.60;;;21.15;;
62911;SDS011;49111;51.028;4.218;2023-01-24T16:23:19;35.80;;;20.65;;
62911;SDS011;49111;51.028;4.218;2023-01-24T16:25:49;37.22;;;21.95;;
62911;SDS011;49111;51.028;4.218;2023-01-24T16:28:25;36.28;;;22.13;;
62911;SDS011;49111;51.028;4.218;2023-01-24T16:30:53;35.80;;;21.33;;
62911;SDS011;49111;51.028;4.218;2023-01-24T16:33:24;33.42;;;19.00;;
62911;SDS011;49111;51.028;4.218;2023-01-24T16:35:50;36.05;;;21.60;;
62911;SDS011;49111;51.028;4.218;2023-01-24T16:38:16;39.38;;;23.05;;
62911;SDS011;49111;51.028;4.218;2023-01-24T16:40:42;36.28;;;21.23;;
62911;SDS011;49111;51.028;4.218;2023-01-24T16:43:15;42.33;;;23.25;;
62911;SDS011;49111;51.028;4.218;2023-01-24T16:45:50;38.28;;;22.08;;
62911;SDS011;49111;51.028;4.218;2023-01-24T16:48:17;34.30;;;20.13;;
62911;SDS011;49111;51.028;4.218;2023-01-24T16:50:43;35.47;;;21.67;;
62911;SDS011;49111;51.028;4.218;2023-01-24T16:53:10;34.47;;;21.90;;
62911;SDS011;49111;51.028;4.218;2023-01-24T16:55:38;37.85;;;23.13;;
62911;SDS011;49111;51.028;4.218;2023-01-24T16:58:08;38.97;;;20.73;;
62911;SDS011;49111;51.028;4.218;2023-01-24T17:00:35;39.67;;;22.73;;
62911;SDS011;49111;51.028;4.218;2023-01-24T17:03:02;40.42;;;22.02;;
62911;SDS011;49111;51.028;4.218;2023-01-24T17:05:28;39.20;;;24.40;;
62911;SDS011;49111;51.028;4.218;2023-01-24T17:07:55;40.75;;;24.25;;
62911;SDS011;49111;51.028;4.218;2023-01-24T17:10:22;39.50;;;23.50;;
62911;SDS011;49111;51.028;4.218;2023-01-24T17:12:49;36.15;;;20.95;;
62911;SDS011;49111;51.028;4.218;2023-01-24T17:15:15;40.63;;;22.80;;
62911;SDS011;49111;51.028;4.218;2023-01-24T17:17:41;41.53;;;24.73;;
62911;SDS011;49111;51.028;4.218;2023-01-24T17:20:08;43.13;;;23.77;;
62911;SDS011;49111;51.028;4.218;2023-01-24T17:22:38;39.45;;;22.02;;
62911;SDS011;49111;51.028;4.218;2023-01-24T17:25:04;42.10;;;23.38;;
62911;SDS011;49111;51.028;4.218;2023-01-24T17:27:31;37.70;;;23.05;;
62911;SDS011;49111;51.028;4.218;2023-01-24T17:29:57;38.85;;;23.30;;
62911;SDS011;49111;51.028;4.218;2023-01-24T17:32:22;38.08;;;21.58;;
62911;SDS011;49111;51.028;4.218;2023-01-24T17:34:48;40.25;;;23.73;;
62911;SDS011;49111;51.028;4.218;2023-01-24T17:37:14;41.00;;;23.95;;
62911;SDS011;49111;51.028;4.218;2023-01-24T17:39:40;43.85;;;26.15;;
62911;SDS011;49111;51.028;4.218;2023-01-24T17:42:05;44.63;;;25.90;;
62911;SDS011;49111;51.028;4.218;2023-01-24T17:44:31;43.70;;;23.38;;
62911;SDS011;49111;51.028;4.218;2023-01-24T17:46:57;45.72;;;25.17;;
62911;SDS011;49111;51.028;4.218;2023-01-24T17:49:23;43.42;;;25.48;;
62911;SDS011;49111;51.028;4.218;2023-01-24T17:51:49;41.78;;;23.00;;
62911;SDS011;49111;51.028;4.218;2023-01-24T17:54:16;41.70;;;23.58;;
62911;SDS011;49111;51.028;4.218;2023-01-24T17:56:43;44.38;;;24.83;;
62911;SDS011;49111;51.028;4.218;2023-01-24T17:59:09;44.30;;;26.10;;
62911;SDS011;49111;51.028;4.218;2023-01-24T18:01:35;43.00;;;23.70;;
62911;SDS011;49111;51.028;4.218;2023-01-24T18:04:01;50.28;;;27.85;;
62911;SDS011;49111;51.028;4.218;2023-01-24T18:06:29;46.88;;;25.73;;
62911;SDS011;49111;51.028;4.218;2023-01-24T18:08:55;46.45;;;26.63;;
62911;SDS011;49111;51.028;4.218;2023-01-24T18:11:21;41.58;;;24.13;;
62911;SDS011;49111;51.028;4.218;2023-01-24T18:13:47;42.97;;;23.95;;
62911;SDS011;49111;51.028;4.218;2023-01-24T18:16:14;44.63;;;26.27;;
62911;SDS011;49111;51.028;4.218;2023-01-24T18:18:43;48.88;;;27.75;;
62911;SDS011;49111;51.028;4.218;2023-01-24T18:21:12;41.17;;;24.23;;
62911;SDS011;49111;51.028;4.218;2023-01-24T18:23:42;41.20;;;24.30;;
62911;SDS011;49111;51.028;4.218;2023-01-24T18:26:07;40.80;;;23.17;;
62911;SDS011;49111;51.028;4.218;2023-01-24T18:28:33;49.15;;;26.77;;
62911;SDS011;49111;51.028;4.218;2023-01-24T18:31:04;42.00;;;23.52;;
62911;SDS011;49111;51.028;4.218;2023-01-24T18:33:33;44.25;;;23.75;;
62911;SDS011;49111;51.028;4.218;2023-01-24T18:35:59;47.20;;;25.42;;
62911;SDS011;49111;51.028;4.218;2023-01-24T18:38:24;45.42;;;25.13;;
62911;SDS011;49111;51.028;4.218;2023-01-24T18:40:53;42.83;;;27.05;;
62911;SDS011;49111;51.028;4.218;2023-01-24T18:43:19;51.33;;;25.55;;
62911;SDS011;49111;51.028;4.218;2023-01-24T18:45:44;42.92;;;24.35;;
62911;SDS011;49111;51.028;4.218;2023-01-24T18:48:10;48.60;;;25.52;;
62911;SDS011;49111;51.028;4.218;2023-01-24T18:50:36;46.28;;;26.50;;
62911;SDS011;49111;51.028;4.218;2023-01-24T18:53:02;45.05;;;25.30;;
62911;SDS011;49111;51.028;4.218;2023-01-24T18:55:27;45.58;;;26.40;;
62911;SDS011;49111;51.028;4.218;2023-01-24T18:57:53;41.13;;;24.88;;
62911;SDS011;49111;51.028;4.218;2023-01-24T19:00:20;48.75;;;28.08;;
62911;SDS011;49111;51.028;4.218;2023-01-24T19:02:46;48.45;;;26.42;;
62911;SDS011;49111;51.028;4.218;2023-01-24T19:05:13;48.58;;;26.63;;
62911;SDS011;49111;51.028;4.218;2023-01-24T19:07:39;46.72;;;25.55;;
62911;SDS011;49111;51.028;4.218;2023-01-24T19:10:06;49.60;;;26.13;;
62911;SDS011;49111;51.028;4.218;2023-01-24T19:12:34;48.83;;;27.23;;
62911;SDS011;49111;51.028;4.218;2023-01-24T19:14:59;42.35;;;24.42;;
62911;SDS011;49111;51.028;4.218;2023-01-24T19:17:25;43.78;;;26.30;;
62911;SDS011;49111;51.028;4.218;2023-01-24T19:19:51;46.38;;;26.40;;
62911;SDS011;49111;51.028;4.218;2023-01-24T19:22:19;42.30;;;24.42;;
62911;SDS011;49111;51.028;4.218;2023-01-24T19:24:47;41.50;;;23.95;;
62911;SDS011;49111;51.028;4.218;2023-01-24T19:27:13;42.10;;;23.58;;
